Time;durP1;ratioP1;P1;durP2;ratioP2;P2;SDS_P1;SDS_P2;PMS_P1;PMS_P2;Temp;Humidity;BMP_temperature;BMP_pressure;BME280_temperature;BME280_humidity;BME280_pressure;Samples;Min_cycle;Max_cycle;Signal;HPM_P1;HPM_P2
2022/10/19 00:01:27;;;;;;;15.93;9.75;;;;;;;;;;4961530;28;20049;-68
2022/10/19 00:03:54;;;;;;;14.48;9.02;;;;;;;;;;4962078;28;20050;-68
2022/10/19 00:06:32;;;;;;;14.48;9.05;;;;;;;;;;4960998;28;20503;-67
2022/10/19 00:09:04;;;;;;;18.75;9.95;;;;;;;;;;4961550;28;20050;-67
2022/10/19 00:11:31;;;;;;;19.67;11.93;;;;;;;;;;4961369;28;20043;-68
2022/10/19 00:13:57;;;;;;;31.05;12.70;;;;;;;;;;4961392;28;20049;-68
2022/10/19 00:16:25;;;;;;;29.20;11.48;;;;;;;;;;4961441;28;20046;-69
2022/10/19 00:18:51;;;;;;;13.23;9.27;;;;;;;;;;4959530;28;20069;-68
2022/10/19 00:21:18;;;;;;;13.93;9.13;;;;;;;;;;4960965;28;20038;-67
2022/10/19 00:23:44;;;;;;;12.95;8.82;;;;;;;;;;4961376;28;20082;-67
2022/10/19 00:26:11;;;;;;;19.77;9.18;;;;;;;;;;4961434;28;20118;-68
2022/10/19 00:28:37;;;;;;;19.17;9.68;;;;;;;;;;4958219;28;20050;-68
2022/10/19 00:31:11;;;;;;;18.45;8.98;;;;;;;;;;4960945;28;20046;-68
2022/10/19 00:33:37;;;;;;;12.68;8.52;;;;;;;;;;4961501;28;20046;-67
2022/10/19 00:36:04;;;;;;;17.70;9.55;;;;;;;;;;4962272;28;20062;-67
2022/10/19 00:38:29;;;;;;;14.02;8.98;;;;;;;;;;4964477;28;20392;-69
2022/10/19 00:40:55;;;;;;;18.23;10.27;;;;;;;;;;4963511;28;20050;-68
2022/10/19 00:43:24;;;;;;;24.13;10.02;;;;;;;;;;4965061;28;20137;-67
2022/10/19 00:45:50;;;;;;;15.60;10.35;;;;;;;;;;4965095;28;20420;-69
2022/10/19 00:48:23;;;;;;;16.38;10.02;;;;;;;;;;4964732;28;20035;-68
2022/10/19 00:50:50;;;;;;;17.38;10.13;;;;;;;;;;4962793;28;20055;-68
2022/10/19 00:53:16;;;;;;;16.67;10.18;;;;;;;;;;4964639;28;20043;-68
2022/10/19 00:55:42;;;;;;;20.67;10.07;;;;;;;;;;4964877;28;20046;-68
2022/10/19 00:58:08;;;;;;;13.73;9.40;;;;;;;;;;4964707;28;20163;-68
2022/10/19 01:00:34;;;;;;;13.70;9.82;;;;;;;;;;4963878;28;20049;-69
2022/10/19 01:03:01;;;;;;;13.77;9.40;;;;;;;;;;4963639;28;20051;-67
2022/10/19 01:05:28;;;;;;;16.55;10.48;;;;;;;;;;4964443;28;20049;-68
2022/10/19 01:07:55;;;;;;;18.30;11.05;;;;;;;;;;4964497;28;20051;-67
2022/10/19 01:10:36;;;;;;;17.58;11.43;;;;;;;;;;4964132;28;20051;-68
2022/10/19 01:13:33;;;;;;;19.30;11.77;;;;;;;;;;4957095;28;20082;-68
2022/10/19 01:16:19;;;;;;;23.60;12.10;;;;;;;;;;4964748;28;20055;-69
2022/10/19 01:19:10;;;;;;;20.73;12.27;;;;;;;;;;4963204;28;20133;-68
2022/10/19 01:21:49;;;;;;;24.27;11.82;;;;;;;;;;4962017;28;20046;-68
2022/10/19 01:24:52;;;;;;;21.10;11.23;;;;;;;;;;4960879;28;20047;-68
2022/10/19 01:27:42;;;;;;;19.77;12.10;;;;;;;;;;4903530;29;20075;-68
2022/10/19 01:30:15;;;;;;;18.05;11.73;;;;;;;;;;4914493;29;20063;-67
2022/10/19 01:32:59;;;;;;;24.02;12.65;;;;;;;;;;4949852;28;20043;-69
2022/10/19 01:35:27;;;;;;;16.58;11.27;;;;;;;;;;4963963;28;20051;-69
2022/10/19 01:38:19;;;;;;;22.88;12.30;;;;;;;;;;4964294;28;20074;-68
2022/10/19 01:41:13;;;;;;;17.52;11.27;;;;;;;;;;4961963;28;20058;-68
2022/10/19 01:43:59;;;;;;;17.00;10.20;;;;;;;;;;4963863;28;20050;-69
2022/10/19 01:46:53;;;;;;;16.08;11.00;;;;;;;;;;4963971;28;20042;-68
2022/10/19 01:49:34;;;;;;;20.88;12.35;;;;;;;;;;4945991;28;20050;-68
2022/10/19 01:52:05;;;;;;;17.73;11.77;;;;;;;;;;4962445;28;20219;-67
2022/10/19 01:54:36;;;;;;;23.27;13.88;;;;;;;;;;4963576;28;20055;-68
2022/10/19 01:57:04;;;;;;;21.38;14.18;;;;;;;;;;4963489;28;20047;-69
2022/10/19 01:59:32;;;;;;;23.45;13.50;;;;;;;;;;4962101;28;20950;-67
2022/10/19 02:01:57;;;;;;;20.00;13.27;;;;;;;;;;4962406;28;20058;-68
2022/10/19 02:04:24;;;;;;;27.02;14.73;;;;;;;;;;4963325;28;20050;-68
2022/10/19 02:06:52;;;;;;;28.13;16.90;;;;;;;;;;4963054;28;20051;-67
2022/10/19 02:09:19;;;;;;;36.33;19.02;;;;;;;;;;4963471;28;20088;-69
2022/10/19 02:11:55;;;;;;;34.40;17.90;;;;;;;;;;4961979;28;20038;-69
2022/10/19 02:14:26;;;;;;;31.60;18.83;;;;;;;;;;4954260;28;20436;-67
2022/10/19 02:16:56;;;;;;;38.80;18.80;;;;;;;;;;4962837;28;20070;-68
2022/10/19 02:19:22;;;;;;;30.00;18.98;;;;;;;;;;4963064;28;20042;-68
2022/10/19 02:21:49;;;;;;;35.05;18.35;;;;;;;;;;4963030;28;20042;-67
2022/10/19 02:24:14;;;;;;;32.95;19.42;;;;;;;;;;4962136;28;20053;-68
2022/10/19 02:26:40;;;;;;;35.35;19.50;;;;;;;;;;4962703;28;20046;-69
2022/10/19 02:29:08;;;;;;;27.15;19.17;;;;;;;;;;4963019;28;20692;-69
2022/10/19 02:31:34;;;;;;;26.70;18.60;;;;;;;;;;4962624;28;20039;-68
2022/10/19 02:34:00;;;;;;;31.75;19.52;;;;;;;;;;4963046;28;20066;-68
2022/10/19 02:36:25;;;;;;;29.98;19.60;;;;;;;;;;4961792;28;20045;-68
2022/10/19 02:38:51;;;;;;;34.25;20.25;;;;;;;;;;4962072;28;20053;-69
2022/10/19 02:41:19;;;;;;;38.08;20.35;;;;;;;;;;4962529;28;20412;-69
2022/10/19 02:43:50;;;;;;;31.10;20.15;;;;;;;;;;4962868;28;21026;-67
2022/10/19 02:46:31;;;;;;;33.00;18.93;;;;;;;;;;4961878;28;20060;-67
2022/10/19 02:48:57;;;;;;;27.93;17.50;;;;;;;;;;4962099;28;20071;-68
2022/10/19 02:51:31;;;;;;;26.98;17.50;;;;;;;;;;4962381;28;20282;-68
2022/10/19 02:53:56;;;;;;;27.63;17.63;;;;;;;;;;4962727;28;20104;-69
2022/10/19 02:56:22;;;;;;;33.58;18.45;;;;;;;;;;4961833;28;20051;-68
2022/10/19 02:58:47;;;;;;;35.55;18.20;;;;;;;;;;4961645;28;20134;-67
2022/10/19 03:01:13;;;;;;;20.67;14.70;;;;;;;;;;4962161;28;20109;-69
2022/10/19 03:03:39;;;;;;;21.70;14.27;;;;;;;;;;4962791;28;20074;-68
2022/10/19 03:06:04;;;;;;;23.90;14.63;;;;;;;;;;4962182;28;20120;-67
2022/10/19 03:08:30;;;;;;;25.30;16.27;;;;;;;;;;4960747;28;20495;-68
2022/10/19 03:10:58;;;;;;;31.48;17.63;;;;;;;;;;4960541;28;20050;-68
2022/10/19 03:13:23;;;;;;;27.20;16.85;;;;;;;;;;4962387;28;20047;-67
2022/10/19 03:15:49;;;;;;;32.58;17.98;;;;;;;;;;4962456;28;20098;-69
2022/10/19 03:18:14;;;;;;;31.05;17.42;;;;;;;;;;4961414;28;20042;-67
2022/10/19 03:20:40;;;;;;;16.40;10.50;;;;;;;;;;4961001;28;20050;-68
2022/10/19 03:23:05;;;;;;;23.65;9.63;;;;;;;;;;4962140;28;20396;-68
2022/10/19 03:25:31;;;;;;;19.63;9.35;;;;;;;;;;4962392;28;20039;-66
2022/10/19 03:27:56;;;;;;;15.90;9.15;;;;;;;;;;4960255;28;20078;-69
2022/10/19 03:30:22;;;;;;;20.80;10.88;;;;;;;;;;4961530;28;20053;-69
2022/10/19 03:32:47;;;;;;;17.48;11.18;;;;;;;;;;4961505;28;20050;-65
2022/10/19 03:35:13;;;;;;;20.13;12.63;;;;;;;;;;4962264;28;21036;-69
2022/10/19 03:37:38;;;;;;;24.58;13.27;;;;;;;;;;4959885;28;20074;-67
2022/10/19 03:40:04;;;;;;;22.90;15.60;;;;;;;;;;4961054;28;20399;-68
2022/10/19 03:42:29;;;;;;;25.30;15.93;;;;;;;;;;4960204;28;20031;-70
2022/10/19 03:44:55;;;;;;;24.88;17.20;;;;;;;;;;4962008;28;20043;-66
2022/10/19 03:47:20;;;;;;;30.58;17.55;;;;;;;;;;4961709;28;20043;-67
2022/10/19 03:49:46;;;;;;;27.35;17.98;;;;;;;;;;4961756;28;20108;-68
2022/10/19 03:52:11;;;;;;;34.53;17.00;;;;;;;;;;4960104;28;20047;-66
2022/10/19 03:54:37;;;;;;;30.67;17.95;;;;;;;;;;4961397;28;20113;-68
2022/10/19 03:57:02;;;;;;;26.42;15.90;;;;;;;;;;4962215;28;20047;-68
2022/10/19 03:59:28;;;;;;;45.97;21.50;;;;;;;;;;4961525;28;20051;-67
2022/10/19 04:01:53;;;;;;;41.45;21.67;;;;;;;;;;4960417;28;20047;-67
2022/10/19 04:04:19;;;;;;;46.20;18.77;;;;;;;;;;4960347;28;20421;-68
2022/10/19 04:06:48;;;;;;;27.98;16.58;;;;;;;;;;4954175;28;20071;-68
2022/10/19 04:09:18;;;;;;;34.67;18.42;;;;;;;;;;4952914;28;20070;-67
2022/10/19 04:11:43;;;;;;;39.80;20.77;;;;;;;;;;4962642;28;20540;-69
2022/10/19 04:14:14;;;;;;;38.17;18.67;;;;;;;;;;4965914;28;20595;-68
2022/10/19 04:16:39;;;;;;;33.85;17.90;;;;;;;;;;4965731;28;20046;-66
2022/10/19 04:19:05;;;;;;;40.45;19.60;;;;;;;;;;4964562;28;20058;-68
2022/10/19 04:21:33;;;;;;;41.63;21.02;;;;;;;;;;4967181;28;20070;-69
2022/10/19 04:24:08;;;;;;;40.67;20.63;;;;;;;;;;4967824;28;20058;-68
2022/10/19 04:26:37;;;;;;;41.20;20.63;;;;;;;;;;4965402;28;20057;-68
2022/10/19 04:29:03;;;;;;;36.30;19.75;;;;;;;;;;4966011;28;20054;-69
2022/10/19 04:31:29;;;;;;;33.42;18.95;;;;;;;;;;4965167;28;20059;-69
2022/10/19 04:33:56;;;;;;;41.08;22.88;;;;;;;;;;4966366;28;20520;-69
2022/10/19 04:36:22;;;;;;;39.90;22.42;;;;;;;;;;4966008;28;20185;-65
2022/10/19 04:38:47;;;;;;;37.70;21.20;;;;;;;;;;4966474;28;20038;-69
2022/10/19 04:41:16;;;;;;;38.83;21.52;;;;;;;;;;4965333;28;20518;-65
2022/10/19 04:43:45;;;;;;;40.30;22.42;;;;;;;;;;4965627;28;20074;-66
2022/10/19 04:46:14;;;;;;;38.67;18.65;;;;;;;;;;4964788;28;20050;-68
2022/10/19 04:48:40;;;;;;;28.55;15.77;;;;;;;;;;4963118;28;20046;-66
2022/10/19 04:51:06;;;;;;;28.67;17.13;;;;;;;;;;4965218;28;20098;-67
2022/10/19 04:53:33;;;;;;;22.30;14.13;;;;;;;;;;4964757;28;20510;-67
2022/10/19 04:55:59;;;;;;;24.92;14.45;;;;;;;;;;4963369;28;20043;-66
2022/10/19 04:58:26;;;;;;;26.80;13.90;;;;;;;;;;4961007;28;20073;-70
2022/10/19 05:00:51;;;;;;;24.25;14.32;;;;;;;;;;4958157;28;21066;-68
2022/10/19 05:03:17;;;;;;;23.30;14.63;;;;;;;;;;4958163;28;20508;-67
2022/10/19 05:05:42;;;;;;;23.30;13.35;;;;;;;;;;4964655;28;20518;-67
2022/10/19 05:08:09;;;;;;;23.23;14.15;;;;;;;;;;4963587;28;20062;-69
2022/10/19 05:10:35;;;;;;;25.83;13.13;;;;;;;;;;4961834;28;20104;-69
2022/10/19 05:13:01;;;;;;;18.23;10.70;;;;;;;;;;4962753;28;20150;-68
2022/10/19 05:15:27;;;;;;;20.77;11.23;;;;;;;;;;4962287;28;20559;-68
2022/10/19 05:17:53;;;;;;;18.67;11.90;;;;;;;;;;4964195;28;20097;-69
2022/10/19 05:20:19;;;;;;;23.42;13.48;;;;;;;;;;4962351;28;20047;-69
2022/10/19 05:22:44;;;;;;;20.52;12.88;;;;;;;;;;4963174;28;20061;-69
2022/10/19 05:25:09;;;;;;;26.77;12.95;;;;;;;;;;4963269;28;20138;-67
2022/10/19 05:27:35;;;;;;;21.92;12.48;;;;;;;;;;4963102;28;20049;-68
2022/10/19 05:30:00;;;;;;;21.92;12.68;;;;;;;;;;4962943;28;20054;-68
2022/10/19 05:32:27;;;;;;;30.25;12.48;;;;;;;;;;4961538;28;20081;-68
2022/10/19 05:34:53;;;;;;;35.40;15.10;;;;;;;;;;4963608;28;20145;-70
2022/10/19 05:37:20;;;;;;;31.48;13.40;;;;;;;;;;4964006;28;20066;-70
2022/10/19 05:39:46;;;;;;;33.45;13.82;;;;;;;;;;4964429;28;20046;-70
2022/10/19 05:42:11;;;;;;;22.80;13.20;;;;;;;;;;4962561;28;20046;-69
2022/10/19 05:44:37;;;;;;;23.80;12.20;;;;;;;;;;4963670;28;20057;-69
2022/10/19 05:47:03;;;;;;;28.55;12.85;;;;;;;;;;4964043;28;20062;-69
2022/10/19 05:49:28;;;;;;;19.90;11.55;;;;;;;;;;4964159;28;20055;-69
2022/10/19 05:51:54;;;;;;;23.77;11.57;;;;;;;;;;4963577;28;20050;-71
2022/10/19 05:54:20;;;;;;;31.58;15.25;;;;;;;;;;4962906;28;20047;-72
2022/10/19 05:56:46;;;;;;;26.77;12.75;;;;;;;;;;4963183;28;20051;-70
2022/10/19 05:59:18;;;;;;;29.63;13.80;;;;;;;;;;4963556;28;20050;-72
2022/10/19 06:01:44;;;;;;;;;;;;;;;;;;4963578;28;20492;-71
2022/10/19 06:04:09;;;;;;;31.70;15.10;;;;;;;;;;4967760;28;20000;-71
2022/10/19 06:06:35;;;;;;;31.98;16.77;;;;;;;;;;4962615;28;20587;-68
2022/10/19 06:09:01;;;;;;;36.70;15.73;;;;;;;;;;4963648;28;20105;-69
2022/10/19 06:11:30;;;;;;;36.22;14.82;;;;;;;;;;4963422;28;20045;-68
2022/10/19 06:13:57;;;;;;;33.28;16.88;;;;;;;;;;4963477;28;20066;-69
2022/10/19 06:16:25;;;;;;;27.85;16.20;;;;;;;;;;4962701;28;20412;-69
2022/10/19 06:18:52;;;;;;;34.13;17.30;;;;;;;;;;4963082;28;20093;-68
2022/10/19 06:21:20;;;;;;;41.08;17.23;;;;;;;;;;4962804;28;20082;-69
2022/10/19 06:23:49;;;;;;;38.47;17.48;;;;;;;;;;4963318;28;20043;-69
2022/10/19 06:26:15;;;;;;;30.73;16.70;;;;;;;;;;4962336;28;20138;-68
2022/10/19 06:28:42;;;;;;;30.02;17.00;;;;;;;;;;4962795;28;20050;-70
2022/10/19 06:31:08;;;;;;;31.33;17.20;;;;;;;;;;4962872;28;20046;-69
2022/10/19 06:33:34;;;;;;;33.15;16.73;;;;;;;;;;4962602;28;20119;-70
2022/10/19 06:36:14;;;;;;;28.80;16.92;;;;;;;;;;4963550;28;20697;-69
2022/10/19 06:38:40;;;;;;;32.13;17.08;;;;;;;;;;4962724;28;20396;-70
2022/10/19 06:41:06;;;;;;;32.95;18.35;;;;;;;;;;4962922;28;20846;-71
2022/10/19 06:43:32;;;;;;;27.60;17.48;;;;;;;;;;4963391;28;20496;-70
2022/10/19 06:45:58;;;;;;;23.13;15.48;;;;;;;;;;4963107;28;20070;-70
2022/10/19 06:48:23;;;;;;;26.95;16.30;;;;;;;;;;4962003;28;20053;-70
2022/10/19 06:51:00;;;;;;;31.48;15.02;;;;;;;;;;4960253;28;20046;-70
2022/10/19 06:53:27;;;;;;;19.58;12.88;;;;;;;;;;4962951;28;20047;-69
2022/10/19 06:55:56;;;;;;;21.05;13.50;;;;;;;;;;4963193;28;20867;-71
2022/10/19 06:58:22;;;;;;;20.10;12.98;;;;;;;;;;4962072;28;20145;-69
2022/10/19 07:00:57;;;;;;;21.83;13.32;;;;;;;;;;4961571;28;20133;-70
2022/10/19 07:03:23;;;;;;;19.27;13.20;;;;;;;;;;4962601;28;20074;-69
2022/10/19 07:05:57;;;;;;;17.52;12.57;;;;;;;;;;4962669;28;20550;-69
2022/10/19 07:08:23;;;;;;;17.13;10.98;;;;;;;;;;4962330;28;20529;-69
2022/10/19 07:10:54;;;;;;;13.90;11.20;;;;;;;;;;4960693;28;20049;-70
2022/10/19 07:13:20;;;;;;;16.35;10.98;;;;;;;;;;4962385;28;20043;-73
2022/10/19 07:15:46;;;;;;;14.63;11.10;;;;;;;;;;4962269;28;20046;-71
2022/10/19 07:18:12;;;;;;;17.63;11.02;;;;;;;;;;4962746;28;20136;-69
2022/10/19 07:20:37;;;;;;;23.15;11.90;;;;;;;;;;4960638;28;20085;-70
2022/10/19 07:23:02;;;;;;;18.33;11.45;;;;;;;;;;4961266;28;20054;-70
2022/10/19 07:25:29;;;;;;;20.50;12.60;;;;;;;;;;4962378;28;20047;-72
2022/10/19 07:27:55;;;;;;;17.90;11.70;;;;;;;;;;4962491;28;20047;-70
2022/10/19 07:30:21;;;;;;;18.10;12.13;;;;;;;;;;4962115;28;20054;-70
2022/10/19 07:32:46;;;;;;;15.80;12.15;;;;;;;;;;4960476;28;20493;-70
2022/10/19 07:35:12;;;;;;;17.13;11.90;;;;;;;;;;4962159;28;20764;-70
2022/10/19 07:37:38;;;;;;;21.75;11.48;;;;;;;;;;4962033;28;20145;-72
2022/10/19 07:40:03;;;;;;;17.48;12.02;;;;;;;;;;4962186;28;20042;-72
2022/10/19 07:42:31;;;;;;;16.27;11.07;;;;;;;;;;4960909;28;20994;-70
2022/10/19 07:44:57;;;;;;;16.83;11.57;;;;;;;;;;4959615;28;20050;-72
2022/10/19 07:47:22;;;;;;;18.20;11.80;;;;;;;;;;4961706;28;20129;-69
2022/10/19 07:49:48;;;;;;;18.17;12.50;;;;;;;;;;4962178;28;20093;-70
2022/10/19 07:52:13;;;;;;;18.85;11.93;;;;;;;;;;4961601;28;20510;-69
2022/10/19 07:54:39;;;;;;;21.95;12.73;;;;;;;;;;4960576;28;20805;-70
2022/10/19 07:57:04;;;;;;;16.80;11.18;;;;;;;;;;4962017;28;20058;-70
2022/10/19 07:59:30;;;;;;;17.80;11.88;;;;;;;;;;4961645;28;20046;-71
2022/10/19 08:01:56;;;;;;;17.40;10.93;;;;;;;;;;4961732;28;20059;-70
2022/10/19 08:04:22;;;;;;;15.48;10.82;;;;;;;;;;4960896;28;20043;-69
2022/10/19 08:06:48;;;;;;;19.83;11.80;;;;;;;;;;4961413;28;20069;-72
2022/10/19 08:09:14;;;;;;;18.33;10.30;;;;;;;;;;4961512;28;20801;-70
2022/10/19 08:11:39;;;;;;;16.83;10.13;;;;;;;;;;4944284;28;20054;-71
2022/10/19 08:14:05;;;;;;;15.65;10.90;;;;;;;;;;4961681;28;20092;-70
2022/10/19 08:16:37;;;;;;;13.88;9.63;;;;;;;;;;4961363;28;20043;-70
2022/10/19 08:19:14;;;;;;;14.48;10.02;;;;;;;;;;4961445;28;20082;-70
2022/10/19 08:21:41;;;;;;;17.00;10.32;;;;;;;;;;4961868;28;21054;-72
2022/10/19 08:24:07;;;;;;;16.70;10.57;;;;;;;;;;4961926;28;20043;-69
2022/10/19 08:26:35;;;;;;;16.13;10.30;;;;;;;;;;4960300;28;20407;-70
2022/10/19 08:29:05;;;;;;;20.02;10.75;;;;;;;;;;4961496;28;20047;-70
2022/10/19 08:31:31;;;;;;;14.02;10.43;;;;;;;;;;4961636;28;20059;-70
2022/10/19 08:33:57;;;;;;;16.83;10.57;;;;;;;;;;4961724;28;20065;-70
2022/10/19 08:36:23;;;;;;;14.60;9.48;;;;;;;;;;4960244;28;20046;-70
2022/10/19 08:38:49;;;;;;;14.65;10.50;;;;;;;;;;4960373;28;20076;-69
2022/10/19 08:41:23;;;;;;;12.80;9.52;;;;;;;;;;4960807;28;20050;-71
2022/10/19 08:44:00;;;;;;;14.90;8.63;;;;;;;;;;4961724;28;20141;-70
2022/10/19 08:46:43;;;;;;;12.52;9.70;;;;;;;;;;4961517;28;20043;-69
2022/10/19 08:49:14;;;;;;;13.68;9.32;;;;;;;;;;4913747;28;20061;-70
2022/10/19 08:51:42;;;;;;;14.93;10.30;;;;;;;;;;4959823;28;20054;-70
2022/10/19 08:54:15;;;;;;;14.95;9.82;;;;;;;;;;4961660;28;20051;-68
2022/10/19 08:56:53;;;;;;;16.23;10.88;;;;;;;;;;4961188;28;20042;-70
2022/10/19 08:59:54;;;;;;;16.70;10.70;;;;;;;;;;4963920;28;20210;-70
2022/10/19 09:02:50;;;;;;;15.70;9.52;;;;;;;;;;4943946;28;20078;-70
2022/10/19 09:05:27;;;;;;;13.60;8.73;;;;;;;;;;4962341;28;20190;-69
2022/10/19 09:07:53;;;;;;;11.65;9.27;;;;;;;;;;4965216;28;20538;-70
2022/10/19 09:10:23;;;;;;;12.98;9.32;;;;;;;;;;4963732;28;20051;-68
2022/10/19 09:12:52;;;;;;;16.45;11.38;;;;;;;;;;4963735;28;20206;-68
2022/10/19 09:15:22;;;;;;;16.63;10.73;;;;;;;;;;4964513;28;20042;-71
2022/10/19 09:17:47;;;;;;;13.68;10.48;;;;;;;;;;4963207;28;20528;-70
2022/10/19 09:20:19;;;;;;;13.88;10.80;;;;;;;;;;4964457;28;20522;-68
2022/10/19 09:22:49;;;;;;;14.38;10.40;;;;;;;;;;4963148;28;20053;-69
2022/10/19 09:25:22;;;;;;;14.15;10.95;;;;;;;;;;4964317;28;20069;-71
2022/10/19 09:27:56;;;;;;;15.85;10.48;;;;;;;;;;4964496;28;20062;-70
2022/10/19 09:30:22;;;;;;;13.35;9.82;;;;;;;;;;4964497;28;20050;-68
2022/10/19 09:32:52;;;;;;;16.35;10.77;;;;;;;;;;4962816;28;20057;-68
2022/10/19 09:35:42;;;;;;;13.50;9.93;;;;;;;;;;4963973;28;20050;-68
2022/10/19 09:38:11;;;;;;;12.98;10.68;;;;;;;;;;4963911;28;20098;-68
2022/10/19 09:40:36;;;;;;;19.13;10.60;;;;;;;;;;4963514;28;20038;-70
2022/10/19 09:43:18;;;;;;;15.85;10.65;;;;;;;;;;4964284;28;20416;-68
2022/10/19 09:46:04;;;;;;;16.05;11.20;;;;;;;;;;4964373;28;20082;-69
2022/10/19 09:48:51;;;;;;;15.63;11.68;;;;;;;;;;4964379;28;20186;-68
2022/10/19 09:51:17;;;;;;;18.45;11.18;;;;;;;;;;4947237;28;20042;-68
2022/10/19 09:53:50;;;;;;;16.08;10.95;;;;;;;;;;4963986;28;20512;-69
2022/10/19 09:56:22;;;;;;;12.57;9.85;;;;;;;;;;4962505;28;20151;-71
2022/10/19 09:58:50;;;;;;;12.80;9.68;;;;;;;;;;4963486;28;20047;-69
2022/10/19 10:01:33;;;;;;;14.30;10.23;;;;;;;;;;4963503;28;20042;-67
2022/10/19 10:04:05;;;;;;;13.82;9.93;;;;;;;;;;4964109;28;20054;-68
2022/10/19 10:06:31;;;;;;;20.15;10.35;;;;;;;;;;4963119;28;20074;-68
2022/10/19 10:08:57;;;;;;;12.30;9.88;;;;;;;;;;4962053;28;20054;-68
2022/10/19 10:11:27;;;;;;;14.10;9.32;;;;;;;;;;4963333;28;20049;-74
2022/10/19 10:13:54;;;;;;;15.38;9.00;;;;;;;;;;4963895;28;20499;-71
2022/10/19 10:16:22;;;;;;;14.65;9.75;;;;;;;;;;4963015;28;20092;-72
2022/10/19 10:19:04;;;;;;;12.18;9.32;;;;;;;;;;4962993;28;20034;-69
2022/10/19 10:21:33;;;;;;;14.05;9.93;;;;;;;;;;4963276;28;20085;-70
2022/10/19 10:24:00;;;;;;;16.13;9.65;;;;;;;;;;4963636;28;20043;-68
2022/10/19 10:26:26;;;;;;;12.55;9.57;;;;;;;;;;4963350;28;20133;-69
2022/10/19 10:28:52;;;;;;;14.63;10.05;;;;;;;;;;4962201;28;20065;-74
2022/10/19 10:31:26;;;;;;;13.25;9.98;;;;;;;;;;4963067;28;20182;-69
2022/10/19 10:34:00;;;;;;;14.65;10.82;;;;;;;;;;4963460;28;20995;-72
2022/10/19 10:36:28;;;;;;;13.02;9.75;;;;;;;;;;4963348;28;20030;-69
2022/10/19 10:39:02;;;;;;;14.30;10.38;;;;;;;;;;4960515;28;20415;-70
2022/10/19 10:41:30;;;;;;;14.02;10.35;;;;;;;;;;4962263;28;20554;-68
2022/10/19 10:43:58;;;;;;;13.98;9.98;;;;;;;;;;4963256;28;20046;-69
2022/10/19 10:46:27;;;;;;;12.20;9.20;;;;;;;;;;4962802;28;20148;-69
2022/10/19 10:48:57;;;;;;;12.50;9.20;;;;;;;;;;4962266;28;20153;-70
2022/10/19 10:51:37;;;;;;;14.05;10.00;;;;;;;;;;4961661;28;20043;-68
2022/10/19 10:54:20;;;;;;;11.63;9.13;;;;;;;;;;4962941;28;20054;-68
2022/10/19 10:57:02;;;;;;;12.27;9.10;;;;;;;;;;4962189;28;20133;-68
2022/10/19 10:59:38;;;;;;;12.52;9.27;;;;;;;;;;4962565;28;20051;-69
2022/10/19 11:02:27;;;;;;;11.23;8.30;;;;;;;;;;4961130;28;20623;-68
2022/10/19 11:04:59;;;;;;;11.68;8.65;;;;;;;;;;4962205;28;21232;-68
2022/10/19 11:07:27;;;;;;;12.40;8.70;;;;;;;;;;4962769;28;20046;-71
2022/10/19 11:10:08;;;;;;;12.70;9.18;;;;;;;;;;4962449;28;20443;-68
2022/10/19 11:12:53;;;;;;;13.80;9.30;;;;;;;;;;4960750;28;20062;-71
2022/10/19 11:15:23;;;;;;;11.65;8.68;;;;;;;;;;4962541;28;20447;-69
2022/10/19 11:18:24;;;;;;;11.00;8.88;;;;;;;;;;4962553;28;20043;-69
2022/10/19 11:20:59;;;;;;;12.07;8.85;;;;;;;;;;4957908;28;20062;-69
2022/10/19 11:24:13;;;;;;;13.45;9.55;;;;;;;;;;4961386;28;20082;-70
2022/10/19 11:26:38;;;;;;;16.88;9.10;;;;;;;;;;4956483;28;20047;-69
2022/10/19 11:29:26;;;;;;;11.02;8.93;;;;;;;;;;4961997;28;20528;-70
2022/10/19 11:31:54;;;;;;;11.32;8.68;;;;;;;;;;4961955;28;20082;-69
2022/10/19 11:34:57;;;;;;;10.88;8.50;;;;;;;;;;4961618;28;20069;-70
2022/10/19 11:37:41;;;;;;;13.50;9.25;;;;;;;;;;4959675;28;20051;-70
2022/10/19 11:40:28;;;;;;;10.80;8.85;;;;;;;;;;4961916;28;20054;-69
2022/10/19 11:43:03;;;;;;;12.38;8.55;;;;;;;;;;4960186;28;20236;-68
2022/10/19 11:45:34;;;;;;;12.73;9.85;;;;;;;;;;4960850;28;20524;-69
2022/10/19 11:48:12;;;;;;;14.20;10.80;;;;;;;;;;4961930;28;20050;-70
2022/10/19 11:50:47;;;;;;;15.05;11.13;;;;;;;;;;4961017;28;20272;-69
2022/10/19 11:53:40;;;;;;;14.05;10.07;;;;;;;;;;4961803;28;20046;-70
2022/10/19 11:56:17;;;;;;;13.35;10.48;;;;;;;;;;4961051;28;20047;-70
2022/10/19 11:58:55;;;;;;;15.38;10.68;;;;;;;;;;4961299;28;20134;-67
2022/10/19 12:01:32;;;;;;;13.75;10.77;;;;;;;;;;4976292;28;20039;-69
2022/10/19 12:04:17;;;;;;;16.42;12.10;;;;;;;;;;4961482;28;20117;-69
2022/10/19 12:06:45;;;;;;;16.92;12.40;;;;;;;;;;4959447;28;20419;-69
2022/10/19 12:09:32;;;;;;;19.75;12.95;;;;;;;;;;4960413;28;20058;-67
2022/10/19 12:12:06;;;;;;;19.75;12.18;;;;;;;;;;4961181;28;20121;-68
2022/10/19 12:14:37;;;;;;;19.58;11.85;;;;;;;;;;4962223;28;20078;-69
2022/10/19 12:17:17;;;;;;;14.73;11.60;;;;;;;;;;4961833;28;20086;-68
2022/10/19 12:19:52;;;;;;;15.65;11.88;;;;;;;;;;4961855;28;20284;-69
2022/10/19 12:22:23;;;;;;;17.35;12.23;;;;;;;;;;4960714;28;20515;-67
2022/10/19 12:24:49;;;;;;;14.40;10.68;;;;;;;;;;4960954;28;20093;-67
2022/10/19 12:27:17;;;;;;;15.90;11.68;;;;;;;;;;4961728;28;20042;-69
2022/10/19 12:29:46;;;;;;;15.18;10.73;;;;;;;;;;4960631;28;20853;-67
2022/10/19 12:32:14;;;;;;;16.77;11.23;;;;;;;;;;4962286;28;20549;-68
2022/10/19 12:34:51;;;;;;;14.27;12.00;;;;;;;;;;4964982;28;20419;-67
2022/10/19 12:37:40;;;;;;;13.40;11.18;;;;;;;;;;4964112;28;20518;-68
2022/10/19 12:40:31;;;;;;;14.18;11.63;;;;;;;;;;4964726;28;20138;-69
2022/10/19 12:43:37;;;;;;;15.65;11.80;;;;;;;;;;4964516;28;20050;-69
2022/10/19 12:46:43;;;;;;;16.10;11.20;;;;;;;;;;4965922;28;20075;-67
2022/10/19 12:49:27;;;;;;;14.30;11.07;;;;;;;;;;4945283;28;20417;-66
2022/10/19 12:51:55;;;;;;;14.13;11.13;;;;;;;;;;4959034;28;20105;-70
2022/10/19 12:54:23;;;;;;;12.30;10.20;;;;;;;;;;4964614;28;20047;-67
2022/10/19 12:56:52;;;;;;;12.20;10.38;;;;;;;;;;4964365;28;20031;-69
2022/10/19 12:59:25;;;;;;;13.00;10.05;;;;;;;;;;4964304;28;20047;-68
2022/10/19 13:01:51;;;;;;;14.02;9.70;;;;;;;;;;4963663;28;20054;-68
2022/10/19 13:04:25;;;;;;;18.35;12.77;;;;;;;;;;4964543;28;20046;-67
2022/10/19 13:06:56;;;;;;;12.82;10.23;;;;;;;;;;4963697;28;20051;-66
2022/10/19 13:09:35;;;;;;;11.57;10.32;;;;;;;;;;4963717;28;20070;-66
2022/10/19 13:12:13;;;;;;;13.00;10.25;;;;;;;;;;4963751;28;20137;-69
2022/10/19 13:14:44;;;;;;;13.73;9.57;;;;;;;;;;4960482;28;20042;-68
2022/10/19 13:17:36;;;;;;;10.88;8.10;;;;;;;;;;4963161;28;20038;-67
2022/10/19 13:20:13;;;;;;;11.70;9.00;;;;;;;;;;4961728;28;20038;-66
2022/10/19 13:23:02;;;;;;;16.00;9.23;;;;;;;;;;4960759;28;20298;-68
2022/10/19 13:25:35;;;;;;;10.93;7.93;;;;;;;;;;4959906;28;20049;-65
2022/10/19 13:28:06;;;;;;;10.98;7.97;;;;;;;;;;4961113;28;21077;-67
2022/10/19 13:30:35;;;;;;;8.93;7.50;;;;;;;;;;4953115;28;20061;-68
2022/10/19 13:33:30;;;;;;;9.52;7.65;;;;;;;;;;4960828;28;20074;-66
2022/10/19 13:35:58;;;;;;;8.90;7.32;;;;;;;;;;4960463;28;20042;-69
2022/10/19 13:38:25;;;;;;;8.70;7.13;;;;;;;;;;4963280;28;20070;-69
2022/10/19 13:40:50;;;;;;;6.28;5.57;;;;;;;;;;4962193;28;20842;-69
2022/10/19 13:43:30;;;;;;;7.47;6.30;;;;;;;;;;4962579;28;20061;-69
2022/10/19 13:45:59;;;;;;;7.18;6.07;;;;;;;;;;4961691;28;20554;-67
2022/10/19 13:48:50;;;;;;;6.00;4.72;;;;;;;;;;4961627;28;20070;-68
2022/10/19 13:51:40;;;;;;;6.78;5.90;;;;;;;;;;4959822;28;20054;-68
2022/10/19 13:54:08;;;;;;;6.55;5.50;;;;;;;;;;4962215;28;20456;-66
2022/10/19 13:56:57;;;;;;;7.57;4.63;;;;;;;;;;4961784;28;20069;-67
2022/10/19 13:59:53;;;;;;;6.40;5.50;;;;;;;;;;4959733;28;20055;-69
2022/10/19 14:02:37;;;;;;;10.15;5.30;;;;;;;;;;4962029;28;20053;-69
2022/10/19 14:05:32;;;;;;;11.32;5.80;;;;;;;;;;4962785;28;20054;-68
2022/10/19 14:07:57;;;;;;;7.43;5.88;;;;;;;;;;4939244;28;20058;-70
2022/10/19 14:10:23;;;;;;;8.93;6.72;;;;;;;;;;4962927;28;20051;-67
2022/10/19 14:12:50;;;;;;;8.02;6.57;;;;;;;;;;4962501;28;20051;-70
2022/10/19 14:15:21;;;;;;;9.25;6.82;;;;;;;;;;4962090;28;20047;-69
2022/10/19 14:17:47;;;;;;;;;;;;;;;;;;4963735;28;20133;-66
2022/10/19 14:20:37;;;;;;;8.50;5.78;;;;;;;;;;4962086;28;19921;-69
2022/10/19 14:23:25;;;;;;;7.50;5.97;;;;;;;;;;4954600;28;20058;-68
2022/10/19 14:25:55;;;;;;;6.57;5.97;;;;;;;;;;4963076;28;20939;-68
2022/10/19 14:28:22;;;;;;;6.07;5.43;;;;;;;;;;4962658;28;20054;-67
2022/10/19 14:31:04;;;;;;;5.25;3.75;;;;;;;;;;4961634;28;20193;-65
2022/10/19 14:33:33;;;;;;;4.10;3.25;;;;;;;;;;4962576;28;20054;-68
2022/10/19 14:36:00;;;;;;;4.97;3.50;;;;;;;;;;4962020;28;20057;-68
2022/10/19 14:38:34;;;;;;;4.35;3.67;;;;;;;;;;4963086;28;20078;-69
2022/10/19 14:41:04;;;;;;;5.35;4.65;;;;;;;;;;4960810;28;20419;-67
2022/10/19 14:43:32;;;;;;;5.30;4.78;;;;;;;;;;4962500;28;20046;-67
2022/10/19 14:46:06;;;;;;;11.05;4.13;;;;;;;;;;4962125;28;21380;-65
2022/10/19 14:48:44;;;;;;;4.88;3.90;;;;;;;;;;4962583;28;20047;-66